Time;durP1;ratioP1;P1;durP2;ratioP2;P2;SDS_P1;SDS_P2;PMS_P1;PMS_P2;Temp;Humidity;BMP_temperature;BMP_pressure;BME280_temperature;BME280_humidity;BME280_pressure;Samples;Min_cycle;Max_cycle;Signal;HPM_P1;HPM_P2
2022/04/30 00:00:40;;;;;;;;;29.25;25.50;;;;;13.54;47.87;102025.00;5036281;28;45348;-54
2022/04/30 00:03:06;;;;;;;;;27.00;22.60;;;;;13.37;47.92;101985.78;5034935;28;45251;-49
2022/04/30 00:05:33;;;;;;;;;24.50;23.00;;;;;13.51;47.96;102021.78;5035914;28;46475;-53
2022/04/30 00:07:59;;;;;;;;;30.80;28.40;;;;;13.52;47.96;102015.22;5035880;28;45219;-52
2022/04/30 00:10:25;;;;;;;;;25.80;23.00;;;;;13.34;48.15;101972.41;5036349;28;45288;-50
2022/04/30 00:12:52;;;;;;;;;25.80;24.80;;;;;13.49;48.41;102010.06;5035907;28;46019;-55
2022/04/30 00:15:17;;;;;;;;;29.20;25.00;;;;;13.47;48.64;102009.44;5036049;28;45754;-51
2022/04/30 00:17:43;;;;;;;;;32.00;28.75;;;;;13.51;48.21;102008.00;5035585;28;45526;-50
2022/04/30 00:20:09;;;;;;;;;27.75;24.50;;;;;13.57;48.29;102006.31;5034946;28;45476;-52
2022/04/30 00:22:35;;;;;;;;;28.20;24.60;;;;;13.58;48.33;102017.16;5034901;28;45377;-50
2022/04/30 00:25:01;;;;;;;;;29.50;23.00;;;;;13.55;48.19;102015.66;5035327;28;45758;-49
2022/04/30 00:27:27;;;;;;;;;29.00;27.40;;;;;13.48;49.03;102019.41;5035863;28;45409;-50
2022/04/30 00:29:53;;;;;;;;;33.00;28.50;;;;;13.40;49.16;102023.16;5035898;28;45319;-52
2022/04/30 00:32:19;;;;;;;;;27.50;26.75;;;;;13.24;49.97;102021.53;5036281;28;45283;-49
2022/04/30 00:34:45;;;;;;;;;27.50;25.75;;;;;13.19;50.21;102016.63;5001436;28;45553;-49
2022/04/30 00:37:10;;;;;;;;;30.80;28.20;;;;;13.27;50.05;102030.25;5035532;28;45385;-49
2022/04/30 00:39:36;;;;;;;;;46.75;34.75;;;;;13.21;50.28;102013.66;5036106;28;45302;-50
2022/04/30 00:42:01;;;;;;;;;27.50;27.25;;;;;13.30;50.74;102026.25;5034574;28;45443;-50
2022/04/30 00:44:30;;;;;;;;;30.00;27.00;;;;;13.28;50.16;102012.66;5034841;28;45938;-49
2022/04/30 00:46:55;;;;;;;;;35.80;32.00;;;;;13.29;50.63;102032.81;5035190;28;45544;-52
2022/04/30 00:49:21;;;;;;;;;38.25;29.00;;;;;13.21;51.20;102027.44;5034327;28;45511;-48
2022/04/30 00:51:47;;;;;;;;;31.50;30.00;;;;;13.10;51.01;102024.16;5034469;28;45433;-49
2022/04/30 00:54:13;;;;;;;;;32.75;30.50;;;;;12.96;51.97;102030.59;5033796;28;47305;-50
2022/04/30 00:56:45;;;;;;;;;32.40;29.40;;;;;12.91;51.84;102027.59;5035639;28;45362;-51
2022/04/30 00:59:16;;;;;;;;;34.20;28.40;;;;;12.93;51.89;102022.72;5033739;28;45370;-52
2022/04/30 01:01:42;;;;;;;;;34.00;30.00;;;;;12.92;51.68;102027.38;5035533;28;45383;-50
2022/04/30 01:04:07;;;;;;;;;34.75;30.25;;;;;12.81;51.91;101998.44;5034557;28;45420;-53
2022/04/30 01:06:49;;;;;;;;;37.00;34.00;;;;;12.83;51.79;102001.00;5033852;28;45913;-53
2022/04/30 01:09:20;;;;;;;;;34.40;29.60;;;;;13.05;51.26;102018.38;5034716;28;45301;-52
2022/04/30 01:11:47;;;;;;;;;36.00;31.60;;;;;13.14;51.32;102017.19;5033758;28;45472;-55
2022/04/30 01:14:13;;;;;;;;;31.80;29.60;;;;;12.98;52.05;102011.97;5033374;28;46338;-49
2022/04/30 01:16:39;;;;;;;;;36.20;34.20;;;;;12.82;52.67;102016.66;5050221;28;46230;-47
2022/04/30 01:19:04;;;;;;;;;34.50;31.00;;;;;12.76;53.43;102014.72;5034966;28;45394;-48
2022/04/30 01:21:30;;;;;;;;;33.00;27.50;;;;;12.57;53.35;101975.75;5050292;28;45414;-48
2022/04/30 01:23:55;;;;;;;;;37.75;31.00;;;;;12.64;54.61;101994.25;5034517;28;45959;-51
2022/04/30 01:26:23;;;;;;;;;35.25;29.50;;;;;12.67;53.82;102002.97;5033286;28;45301;-51
2022/04/30 01:28:48;;;;;;;;;32.80;29.20;;;;;12.55;53.41;101976.97;5033697;28;45494;-52
2022/04/30 01:39:29;;;;;;;;;34.60;28.20;;;;;12.87;52.55;101991.31;5062118;28;45468;-54
2022/04/30 01:41:54;;;;;;;;;33.25;28.75;;;;;12.85;52.86;101993.38;5035119;28;45409;-48
2022/04/30 01:44:20;;;;;;;;;43.00;34.25;;;;;12.77;53.26;101990.75;5066670;28;47558;-50
2022/04/30 01:46:46;;;;;;;;;34.25;33.00;;;;;12.63;53.59;101989.78;5034335;28;45468;-50
2022/04/30 01:49:15;;;;;;;;;36.80;31.00;;;;;12.07;54.10;101904.03;5034485;28;45425;-51
2022/04/30 01:51:50;;;;;;;;;31.40;30.20;;;;;12.54;54.21;101992.63;5034434;28;45583;-48
2022/04/30 01:54:16;;;;;;;;;33.40;28.80;;;;;12.58;54.15;101990.34;5034898;28;45871;-48
2022/04/30 01:56:41;;;;;;;;;33.75;29.25;;;;;12.56;54.20;101986.94;5037859;28;45307;-48
2022/04/30 01:59:07;;;;;;;;;29.50;27.25;;;;;12.54;53.89;101984.38;5053092;28;45545;-54
2022/04/30 02:01:32;;;;;;;;;30.50;27.00;;;;;12.44;54.00;101976.44;5033270;28;45319;-56
2022/04/30 02:03:58;;;;;;;;;29.00;28.75;;;;;12.40;54.82;101977.88;5055720;28;46341;-50
2022/04/30 02:06:23;;;;;;;;;33.25;29.75;;;;;12.48;54.57;101982.41;5051199;28;45880;-48
2022/04/30 02:08:49;;;;;;;;;43.50;36.00;;;;;12.36;53.79;101939.91;5056773;28;45392;-50
2022/04/30 02:11:15;;;;;;;;;41.25;33.50;;;;;12.53;54.16;101984.59;5039383;28;45457;-51
2022/04/30 02:13:40;;;;;;;;;37.25;32.00;;;;;12.43;54.58;101977.47;5035663;28;46416;-49
2022/04/30 02:16:06;;;;;;;;;34.25;32.50;;;;;12.34;54.75;101971.22;5035008;28;45491;-48
2022/04/30 02:18:31;;;;;;;;;36.75;34.00;;;;;12.36;55.06;101967.44;5029354;28;45363;-50
2022/04/30 02:20:57;;;;;;;;;40.25;34.25;;;;;12.39;54.86;101970.66;5037929;28;45379;-49
2022/04/30 02:23:22;;;;;;;;;38.75;33.25;;;;;12.38;55.04;101970.88;5037630;28;46377;-51
2022/04/30 02:25:49;;;;;;;;;36.00;29.25;;;;;12.40;55.23;101971.50;5036113;28;45279;-49
2022/04/30 02:28:15;;;;;;;;;37.20;32.80;;;;;12.38;54.68;101971.69;5036480;28;45364;-49
2022/04/30 02:30:42;;;;;;;;;40.00;30.50;;;;;12.38;54.71;101968.13;5038172;28;45469;-48
2022/04/30 02:33:08;;;;;;;;;48.00;37.20;;;;;12.32;55.23;101969.72;5037312;28;45865;-49
2022/04/30 02:35:34;;;;;;;;;43.60;32.80;;;;;12.01;54.93;101930.38;5036298;28;45496;-52
2022/04/30 02:38:01;;;;;;;;;49.25;37.75;;;;;12.24;55.37;101970.72;5037338;28;45299;-53
2022/04/30 02:40:28;;;;;;;;;36.40;33.00;;;;;12.13;55.39;101952.78;5037444;28;45461;-51
2022/04/30 02:42:54;;;;;;;;;42.00;34.60;;;;;12.28;55.36;101973.94;5069367;28;45417;-54
2022/04/30 02:45:20;;;;;;;;;42.00;34.00;;;;;12.17;56.01;101975.28;5037468;28;45267;-49
2022/04/30 02:47:52;;;;;;;;;38.60;32.40;;;;;12.15;55.44;101971.84;5036091;28;45879;-51
2022/04/30 02:50:18;;;;;;;;;36.80;33.40;;;;;12.17;55.35;101973.34;5037428;28;45403;-48
2022/04/30 02:52:43;;;;;;;;;39.50;33.25;;;;;12.20;55.83;101972.13;5037190;28;46105;-55
2022/04/30 02:55:09;;;;;;;;;32.00;30.75;;;;;12.17;55.59;101965.09;5037132;28;45370;-51
2022/04/30 03:00:34;;;;;;;;;37.60;34.20;;;;;12.05;55.69;101951.00;5036236;28;45630;-50
2022/04/30 03:03:00;;;;;;;;;33.80;27.20;;;;;11.88;55.83;101941.22;5036505;28;45453;-50
2022/04/30 03:05:26;;;;;;;;;33.25;29.75;;;;;12.07;56.02;101959.91;5029164;28;45382;-55
2022/04/30 03:07:52;;;;;;;;;39.80;35.20;;;;;12.14;56.05;101960.00;5035486;28;45418;-54
2022/04/30 03:10:19;;;;;;;;;33.40;32.20;;;;;12.17;55.39;101958.75;5035881;28;45683;-52
2022/04/30 03:12:44;;;;;;;;;31.40;26.80;;;;;12.09;55.75;101956.09;5036815;28;45630;-50
2022/04/30 03:15:10;;;;;;;;;37.25;31.25;;;;;12.18;55.84;101953.03;5036535;28;45228;-47
2022/04/30 03:23:04;;;;;;;;;28.40;23.60;;;;;12.07;56.02;101948.91;5021186;28;45244;-49
2022/04/30 03:25:30;;;;;;;;;34.75;27.00;;;;;12.11;55.59;101959.53;5036778;28;45207;-51
2022/04/30 03:27:55;;;;;;;;;32.25;31.50;;;;;12.11;55.11;101945.78;5036849;28;45232;-51
2022/04/30 03:30:22;;;;;;;;;33.75;29.75;;;;;12.26;55.55;101954.84;5036659;28;45174;-51
2022/04/30 03:32:49;;;;;;;;;25.00;21.00;;;;;12.24;55.26;101956.94;5036720;28;45349;-50
2022/04/30 03:35:14;;;;;;;;;32.00;27.00;;;;;11.97;55.28;101914.44;5034869;28;45858;-52
2022/04/30 03:37:40;;;;;;;;;31.00;27.25;;;;;12.16;55.48;101941.38;5036808;28;45319;-53
2022/04/30 03:40:06;;;;;;;;;30.25;27.50;;;;;12.19;54.99;101937.41;5036716;28;45681;-50
2022/04/30 03:42:33;;;;;;;;;33.00;28.75;;;;;12.30;55.03;101953.41;5035838;28;45361;-50
2022/04/30 03:44:59;;;;;;;;;34.80;32.40;;;;;12.26;55.29;101949.34;5036184;28;45371;-49
2022/04/30 03:47:25;;;;;;;;;31.80;28.40;;;;;12.24;55.28;101953.31;5036406;28;45727;-48
2022/04/30 03:49:50;;;;;;;;;39.25;34.00;;;;;12.13;56.21;101954.69;5035236;28;45306;-49
2022/04/30 03:52:16;;;;;;;;;34.50;30.25;;;;;12.02;56.36;101951.34;5036070;28;46136;-53
2022/04/30 03:54:41;;;;;;;;;32.25;31.50;;;;;12.06;56.16;101949.94;5036328;28;45342;-53
2022/04/30 03:57:07;;;;;;;;;31.50;25.75;;;;;12.12;56.24;101948.31;5036606;28;45374;-49
2022/04/30 03:59:33;;;;;;;;;37.75;30.50;;;;;12.11;55.73;101937.53;5036116;28;45289;-52
2022/04/30 04:01:59;;;;;;;;;33.00;29.00;;;;;11.96;55.93;101924.63;5018312;28;47267;-54
2022/04/30 04:04:25;;;;;;;;;34.80;30.40;;;;;12.10;55.87;101953.16;5035603;28;45496;-54
2022/04/30 04:06:53;;;;;;;;;34.40;30.20;;;;;12.05;55.85;101942.75;5032144;28;45435;-51
2022/04/30 04:09:18;;;;;;;;;34.00;28.20;;;;;12.10;56.13;101950.41;5052421;28;45457;-50
2022/04/30 04:11:44;;;;;;;;;35.00;29.25;;;;;12.05;56.16;101941.88;5051810;28;47505;-53
2022/04/30 04:19:37;;;;;;;;;39.60;34.00;;;;;11.99;56.07;101954.47;5029239;28;45393;-50
2022/04/30 04:22:03;;;;;;;;;34.50;29.25;;;;;11.76;56.51;101922.47;5035984;28;45528;-50
2022/04/30 04:27:13;;;;;;;;;38.20;28.60;;;;;11.44;56.80;101898.94;5035822;28;45440;-48
2022/04/30 04:29:38;;;;;;;;;38.60;33.40;;;;;11.58;57.07;101911.00;5035775;28;45395;-48
2022/04/30 04:32:04;;;;;;;;;30.50;27.75;;;;;11.79;56.94;101960.56;5035478;28;46599;-52
2022/04/30 04:34:30;;;;;;;;;32.80;30.20;;;;;11.78;57.43;101950.63;5034626;28;45304;-56
2022/04/30 04:36:55;;;;;;;;;42.00;36.00;;;;;11.80;57.18;101954.03;5036389;28;45407;-57
2022/04/30 04:39:21;;;;;;;;;38.50;31.25;;;;;11.80;57.37;101959.53;5036168;28;45206;-48
2022/04/30 04:41:46;;;;;;;;;36.50;32.00;;;;;11.69;57.56;101954.50;5035145;28;46291;-48
2022/04/30 04:44:12;;;;;;;;;44.25;32.25;;;;;11.70;57.32;101961.72;5035423;28;45318;-50
2022/04/30 04:46:41;;;;;;;;;40.50;35.75;;;;;11.44;57.57;101927.28;5035807;28;45343;-53
2022/04/30 04:49:06;;;;;;;;;41.80;34.80;;;;;11.64;57.99;101965.22;5068292;28;45412;-49
2022/04/30 04:51:33;;;;;;;;;41.25;33.00;;;;;11.72;57.58;101969.75;5035375;28;46288;-54
2022/04/30 04:54:02;;;;;;;;;34.60;30.80;;;;;11.71;57.13;101965.31;5067211;28;45255;-51
2022/04/30 04:56:28;;;;;;;;;41.80;30.40;;;;;11.85;57.60;101983.69;5035662;28;45325;-48
2022/04/30 04:58:53;;;;;;;;;36.50;31.25;;;;;11.88;56.96;101976.97;5034780;28;45604;-53
2022/04/30 05:01:19;;;;;;;;;37.25;33.50;;;;;11.87;57.34;101981.63;5035039;28;46289;-52
2022/04/30 05:03:44;;;;;;;;;32.75;31.00;;;;;11.81;57.50;101979.63;5034638;28;45424;-54
2022/04/30 05:06:10;;;;;;;;;35.50;32.75;;;;;11.64;57.46;101951.47;5034868;28;45412;-50
2022/04/30 05:08:35;;;;;;;;;35.75;32.00;;;;;11.84;57.21;101970.16;5050901;28;45360;-53
2022/04/30 05:11:01;;;;;;;;;38.25;32.25;;;;;11.90;57.51;101983.16;5034430;28;46723;-49
2022/04/30 05:13:27;;;;;;;;;42.00;33.00;;;;;11.98;57.37;101980.28;5033399;28;45538;-50
2022/04/30 05:15:52;;;;;;;;;46.50;32.50;;;;;12.05;57.05;101981.25;5034536;28;45455;-50
2022/04/30 05:18:18;;;;;;;;;46.50;34.25;;;;;12.05;56.74;101988.66;5035261;28;45267;-51
2022/04/30 05:20:43;;;;;;;;;36.50;34.00;;;;;11.98;57.16;101979.44;5034642;28;45657;-51
2022/04/30 05:23:09;;;;;;;;;42.25;34.50;;;;;12.05;57.49;101994.16;5034719;28;45366;-49
2022/04/30 05:25:36;;;;;;;;;35.75;33.75;;;;;11.82;57.17;101958.47;5035021;28;45222;-48
2022/04/30 05:28:01;;;;;;;;;43.20;34.20;;;;;11.91;57.10;101993.09;5033155;28;45407;-50
2022/04/30 05:30:27;;;;;;;;;44.75;34.25;;;;;11.86;57.58;101995.56;5036011;28;46091;-54
2022/04/30 05:32:52;;;;;;;;;40.00;34.25;;;;;11.75;57.46;101970.22;5037933;28;45330;-57
2022/04/30 05:35:18;;;;;;;;;37.50;33.50;;;;;12.04;57.19;101998.81;5038189;28;45348;-51
2022/04/30 05:37:43;;;;;;;;;41.50;31.00;;;;;11.96;57.58;102006.28;5038244;28;45276;-47
2022/04/30 05:40:09;;;;;;;;;35.75;32.00;;;;;11.61;58.21;101973.84;5037637;28;46252;-48
2022/04/30 05:42:35;;;;;;;;;38.25;31.25;;;;;11.93;57.32;102002.00;5038151;28;45432;-49
2022/04/30 05:45:00;;;;;;;;;41.00;34.25;;;;;11.94;57.65;102014.72;5038049;28;45415;-51
2022/04/30 05:47:26;;;;;;;;;34.25;31.00;;;;;11.93;57.14;102013.03;5038318;28;45607;-50
2022/04/30 05:49:51;;;;;;;;;52.25;36.50;;;;;11.49;57.70;101935.81;5037630;28;45415;-50
2022/04/30 05:52:19;;;;;;;;;37.50;32.00;;;;;11.93;56.95;101991.00;5037664;28;45480;-53
2022/04/30 05:54:48;;;;;;;;;50.00;36.80;;;;;12.09;57.33;102016.66;5037754;28;45286;-50
2022/04/30 05:57:13;;;;;;;;;33.00;30.60;;;;;11.95;57.07;102007.34;5037752;28;45344;-53
2022/04/30 05:59:39;;;;;;;;;44.00;37.25;;;;;11.84;57.46;101997.66;5037832;28;46385;-54
2022/04/30 06:02:04;;;;;;;;;45.25;37.25;;;;;11.79;57.91;102012.84;5037952;28;45531;-53
2022/04/30 06:04:30;;;;;;;;;41.25;36.00;;;;;11.97;57.46;102013.50;5037698;28;45278;-50
2022/04/30 06:06:55;;;;;;;;;42.00;34.00;;;;;11.37;57.13;101909.84;5038463;28;45300;-50
2022/04/30 06:09:21;;;;;;;;;39.50;34.50;;;;;12.14;56.83;102023.31;5007095;28;45381;-50
2022/04/30 06:11:47;;;;;;;;;40.50;34.25;;;;;12.24;56.28;102028.50;5036374;28;45571;-52
2022/04/30 06:14:13;;;;;;;;;38.60;30.40;;;;;11.92;56.43;101987.41;5036778;28;45393;-52
2022/04/30 06:16:38;;;;;;;;;46.50;34.25;;;;;11.93;56.94;102022.13;5037153;28;45608;-58
2022/04/30 06:19:04;;;;;;;;;40.75;31.50;;;;;11.94;57.14;102031.22;5036537;28;46657;-52
2022/04/30 06:21:29;;;;;;;;;44.75;34.25;;;;;11.89;56.53;102022.69;5036114;28;45475;-55
2022/04/30 06:23:55;;;;;;;;;38.25;29.75;;;;;11.92;56.62;102028.66;5037738;28;45310;-55
2022/04/30 06:26:20;;;;;;;;;39.75;35.25;;;;;11.96;56.48;102037.41;5036263;28;45605;-50
2022/04/30 06:28:46;;;;;;;;;37.00;31.25;;;;;11.98;56.72;102039.97;5037327;28;45341;-52
2022/04/30 06:31:12;;;;;;;;;41.25;33.25;;;;;11.89;56.84;102047.44;5036278;28;45437;-53
2022/04/30 06:33:37;;;;;;;;;38.50;34.25;;;;;11.79;56.92;102045.84;5037439;28;45403;-51
2022/04/30 06:36:03;;;;;;;;;28.50;23.25;;;;;11.81;56.93;102042.91;5036378;28;45337;-51
2022/04/30 06:38:29;;;;;;;;;39.50;34.00;;;;;11.88;56.35;102048.50;5035819;28;46110;-51
2022/04/30 06:40:54;;;;;;;;;37.00;31.50;;;;;11.94;56.29;102050.50;5036118;28;45474;-52
2022/04/30 06:43:21;;;;;;;;;37.75;33.00;;;;;11.92;56.70;102044.34;5037226;28;45397;-51
2022/04/30 06:45:47;;;;;;;;;32.20;27.80;;;;;12.01;56.38;102034.94;5037495;28;45363;-51
2022/04/30 06:48:12;;;;;;;;;41.50;36.25;;;;;11.91;55.83;102012.38;5019379;28;45522;-49
2022/04/30 06:50:38;;;;;;;;;38.00;32.25;;;;;12.16;55.68;102051.47;5036932;28;45434;-52
2022/04/30 06:58:41;;;;;;;;;39.80;34.00;;;;;12.07;56.04;102053.47;5035462;28;45505;-49
2022/04/30 07:04:04;;;;;;;;;37.00;28.80;;;;;12.09;55.64;102050.53;5035977;28;45530;-50
2022/04/30 07:06:30;;;;;;;;;36.60;30.80;;;;;12.25;55.35;102056.88;5036930;28;45344;-51
2022/04/30 07:08:55;;;;;;;;;40.50;33.00;;;;;12.38;54.97;102058.97;4996330;27;46121;-53
2022/04/30 07:11:22;;;;;;;;;37.50;31.00;;;;;12.44;54.81;102069.22;5033522;28;45454;-50
2022/04/30 07:13:47;;;;;;;;;38.20;31.00;;;;;12.49;54.18;102058.44;5036654;28;45299;-52
2022/04/30 07:16:13;;;;;;;;;38.00;31.25;;;;;12.38;54.39;102064.47;5036184;28;45321;-53
2022/04/30 07:18:38;;;;;;;;;30.50;28.00;;;;;12.49;54.04;102063.13;5050750;28;46261;-53
2022/04/30 07:21:04;;;;;;;;;33.00;29.00;;;;;12.23;53.99;102024.06;5056784;28;45193;-50
2022/04/30 07:23:30;;;;;;;;;26.25;22.50;;;;;12.67;54.13;102071.81;5056915;28;45443;-51
2022/04/30 07:25:56;;;;;;;;;35.80;30.20;;;;;12.90;53.31;102078.22;5055686;28;45358;-53
2022/04/30 07:28:23;;;;;;;;;35.00;28.75;;;;;12.99;53.25;102066.91;5056497;28;46352;-52
2022/04/30 07:30:49;;;;;;;;;33.20;32.60;;;;;13.02;52.85;102060.97;5056224;28;45326;-55
2022/04/30 07:33:15;;;;;;;;;33.40;28.60;;;;;13.12;52.52;102076.31;5056825;28;45427;-57
2022/04/30 07:35:40;;;;;;;;;32.50;27.75;;;;;13.10;52.53;102073.78;5056956;28;45357;-55
2022/04/30 07:38:06;;;;;;;;;31.25;29.75;;;;;12.64;52.32;102013.53;5056539;28;45312;-50
2022/04/30 07:40:31;;;;;;;;;37.00;30.00;;;;;13.03;52.38;102070.09;5056200;28;45422;-51
2022/04/30 07:42:57;;;;;;;;;30.00;29.00;;;;;12.95;52.37;102062.81;5056587;28;45309;-52
2022/04/30 07:45:23;;;;;;;;;34.00;27.75;;;;;13.05;52.52;102069.88;5056941;28;45558;-55
2022/04/30 07:47:48;;;;;;;;;32.00;30.00;;;;;13.07;52.51;102071.41;5056330;28;46377;-53
2022/04/30 07:50:16;;;;;;;;;37.00;33.50;;;;;13.08;52.39;102084.13;5056586;28;45286;-49
2022/04/30 07:52:41;;;;;;;;;30.80;27.20;;;;;13.13;52.13;102078.88;5055726;28;45401;-52
2022/04/30 07:55:07;;;;;;;;;34.75;29.75;;;;;13.15;51.79;102076.78;5056538;28;45294;-50
2022/04/30 07:57:32;;;;;;;;;29.25;26.00;;;;;13.19;51.77;102084.69;5037925;28;47515;-54
2022/04/30 07:59:58;;;;;;;;;30.75;25.50;;;;;13.20;51.77;102081.72;5004927;28;1428663;-50
2022/04/30 08:02:24;;;;;;;;;33.75;29.25;;;;;13.20;51.58;102083.63;5045517;28;45417;-52
2022/04/30 08:04:49;;;;;;;;;36.00;28.75;;;;;13.11;51.47;102092.03;5036476;28;45551;-50
2022/04/30 08:07:15;;;;;;;;;26.75;26.00;;;;;13.07;51.56;102076.91;5035522;28;45442;-51
2022/04/30 08:09:40;;;;;;;;;34.00;28.25;;;;;13.13;52.01;102086.31;5004963;27;45402;-48
2022/04/30 08:12:06;;;;;;;;;28.00;24.75;;;;;12.98;51.90;102083.63;5016780;28;45796;-49
2022/04/30 08:14:32;;;;;;;;;35.00;30.80;;;;;12.90;52.15;102064.47;5035694;28;45334;-55
2022/04/30 08:16:57;;;;;;;;;32.50;27.25;;;;;12.88;52.17;102053.63;5034322;28;45355;-53
2022/04/30 08:19:23;;;;;;;;;33.25;31.25;;;;;13.11;51.79;102086.50;5034374;28;45434;-53
2022/04/30 08:21:49;;;;;;;;;33.25;27.50;;;;;13.19;51.78;102079.16;5035613;28;45358;-49
2022/04/30 08:24:15;;;;;;;;;33.25;29.25;;;;;13.14;51.55;102066.81;5034789;28;45786;-46
2022/04/30 08:26:40;;;;;;;;;26.20;22.40;;;;;13.15;51.42;102049.22;5067292;28;46778;-48
2022/04/30 08:29:06;;;;;;;;;29.75;27.50;;;;;13.41;51.12;102080.00;5035149;28;45488;-50
2022/04/30 08:31:32;;;;;;;;;37.00;30.80;;;;;13.48;50.54;102080.09;5033638;28;45460;-49
2022/04/30 08:33:58;;;;;;;;;31.25;28.00;;;;;13.44;50.79;102082.34;5035879;28;45306;-52
2022/04/30 08:36:23;;;;;;;;;38.00;29.25;;;;;13.49;50.84;102076.28;5035002;28;45414;-51
2022/04/30 08:38:49;;;;;;;;;35.00;27.75;;;;;13.39;50.63;102055.38;5035449;28;45349;-51
2022/04/30 08:41:16;;;;;;;;;33.50;29.00;;;;;13.41;50.42;102042.22;5050531;28;45377;-49
2022/04/30 08:43:42;;;;;;;;;30.60;26.80;;;;;13.66;50.05;102076.84;5035345;28;45397;-49
2022/04/30 08:46:07;;;;;;;;;30.00;27.25;;;;;13.64;50.48;102074.28;5033968;28;46161;-50
2022/04/30 08:48:33;;;;;;;;;33.25;29.50;;;;;13.74;49.83;102073.94;5035299;28;45450;-54
2022/04/30 08:50:58;;;;;;;;;29.50;23.50;;;;;13.74;49.79;102068.44;5051127;28;45419;-49
2022/04/30 08:53:24;;;;;;;;;38.25;31.50;;;;;13.81;49.77;102069.31;5035344;28;45559;-50
2022/04/30 08:55:49;;;;;;;;;30.75;29.75;;;;;13.90;49.43;102069.16;5033785;28;45565;-52
2022/04/30 08:58:16;;;;;;;;;32.25;28.50;;;;;13.90;49.04;102055.38;5032662;28;45494;-50
2022/04/30 09:00:43;;;;;;;;;28.40;24.40;;;;;13.96;48.85;102055.41;5035596;28;45453;-54
2022/04/30 09:03:11;;;;;;;;;30.60;25.40;;;;;13.91;48.73;102057.94;5034486;28;45472;-53
2022/04/30 09:05:37;;;;;;;;;27.60;26.80;;;;;13.99;48.98;102053.31;5069066;28;45355;-48
2022/04/30 09:08:03;;;;;;;;;24.50;23.00;;;;;13.87;48.76;102020.75;5039024;28;45305;-51
2022/04/30 09:10:30;;;;;;;;;34.25;26.00;;;;;14.12;47.98;102052.50;5061159;27;45321;-52
2022/04/30 09:13:12;;;;;;;;;35.80;29.60;;;;;14.21;48.14;102057.66;5033080;28;45365;-51
2022/04/30 09:15:38;;;;;;;;;25.80;22.40;;;;;14.29;48.00;102045.59;5036895;28;46258;-52
2022/04/30 09:18:04;;;;;;;;;23.80;19.40;;;;;14.42;48.31;102053.13;5037492;28;45373;-52
2022/04/30 09:20:31;;;;;;;;;27.20;24.80;;;;;14.45;47.77;102049.94;5038219;28;45487;-50
2022/04/30 09:22:56;;;;;;;;;29.20;24.80;;;;;14.50;47.20;102047.41;5037564;28;45295;-52
2022/04/30 09:25:22;;;;;;;;;28.75;24.50;;;;;14.56;47.38;102039.34;5070285;28;46339;-54
2022/04/30 09:27:50;;;;;;;;;26.25;23.50;;;;;14.62;47.54;102039.38;5036081;28;45366;-54
2022/04/30 09:30:17;;;;;;;;;19.40;19.40;;;;;14.67;47.32;102041.50;5038742;28;45290;-51
2022/04/30 09:32:42;;;;;;;;;22.60;20.20;;;;;14.73;47.18;102029.63;5036613;28;45572;-53
2022/04/30 09:38:04;;;;;;;;;28.40;22.60;;;;;14.43;46.87;101960.91;5037270;28;45507;-47
2022/04/30 09:40:30;;;;;;;;;27.50;24.25;;;;;14.88;45.30;102042.44;5038516;28;45425;-50
2022/04/30 09:42:56;;;;;;;;;30.00;26.00;;;;;14.89;45.33;102033.09;5036975;28;45421;-52
2022/04/30 09:45:22;;;;;;;;;27.50;22.75;;;;;15.01;45.08;102047.16;5038194;28;45369;-54
2022/04/30 09:47:47;;;;;;;;;17.00;16.75;;;;;14.75;44.59;101994.38;5038025;28;45441;-51
2022/04/30 09:55:44;;;;;;;;;16.40;14.60;;;;;15.02;41.15;102046.94;5036675;28;45485;-52
2022/04/30 09:58:10;;;;;;;;;13.00;12.40;;;;;15.04;40.98;102036.53;5036235;28;45431;-53
2022/04/30 10:00:35;;;;;;;;;14.60;13.40;;;;;15.02;41.21;102035.88;5036602;28;45401;-55
2022/04/30 10:03:02;;;;;;;;;15.50;13.00;;;;;15.11;41.25;102032.91;5036665;28;45683;-49
2022/04/30 10:05:30;;;;;;;;;15.00;14.60;;;;;15.17;41.65;102032.06;5037565;28;45361;-52
2022/04/30 10:07:56;;;;;;;;;15.20;15.20;;;;;15.24;41.41;102029.28;5069744;28;45461;-50
2022/04/30 10:10:28;;;;;;;;;13.75;11.75;;;;;15.14;41.51;102016.75;5027164;28;45416;-48
2022/04/30 10:13:22;;;;;;;;;9.40;8.60;;;;;15.10;40.08;102011.88;5019277;28;45295;-52
2022/04/30 10:15:51;;;;;;;;;12.60;12.00;;;;;15.26;41.33;102025.25;5030204;28;45433;-55
2022/04/30 10:18:18;;;;;;;;;14.20;13.60;;;;;15.41;40.56;102024.19;5069830;28;45489;-52
2022/04/30 10:20:50;;;;;;;;;13.20;13.20;;;;;15.44;40.50;102032.91;5037460;28;45495;-51
2022/04/30 10:23:16;;;;;;;;;14.40;10.40;;;;;15.22;39.88;101989.94;5070106;28;45416;-54
2022/04/30 10:25:48;;;;;;;;;14.00;14.00;;;;;15.53;40.45;102016.13;5069370;28;46127;-54
2022/04/30 10:28:16;;;;;;;;;17.20;15.40;;;;;15.53;39.09;102030.78;5036161;28;45331;-51
2022/04/30 10:30:43;;;;;;;;;14.00;14.00;;;;;15.48;39.63;102007.59;5037401;28;45783;-51
2022/04/30 10:33:09;;;;;;;;;13.00;11.20;;;;;15.45;39.52;102006.97;5037172;28;45431;-52
2022/04/30 10:35:36;;;;;;;;;15.00;14.50;;;;;15.63;39.72;102018.44;5037202;28;46207;-55
2022/04/30 10:38:06;;;;;;;;;12.20;10.60;;;;;15.41;40.02;101966.97;5036900;28;45330;-52
2022/04/30 10:40:56;;;;;;;;;15.00;10.80;;;;;15.67;39.27;101992.88;5036143;28;45340;-55
2022/04/30 10:43:27;;;;;;;;;15.60;13.00;;;;;15.79;39.04;102001.38;5037300;28;45290;-54
2022/04/30 10:45:53;;;;;;;;;13.60;9.20;;;;;15.90;39.40;102007.31;5069073;28;46089;-48
2022/04/30 10:48:19;;;;;;;;;14.00;11.40;;;;;15.88;39.11;101998.38;5037019;28;45474;-50
2022/04/30 10:50:51;;;;;;;;;15.40;11.00;;;;;15.95;38.67;101988.19;5069895;28;45381;-49
2022/04/30 10:53:16;;;;;;;;;13.00;10.00;;;;;16.06;37.96;101995.78;5035020;28;45809;-55
2022/04/30 10:55:42;;;;;;;;;14.25;12.25;;;;;16.00;38.87;101999.44;5069487;28;45511;-50
2022/04/30 10:58:07;;;;;;;;;13.25;11.75;;;;;16.08;38.45;101988.13;5051628;28;45448;-48
2022/04/30 11:00:33;;;;;;;;;12.25;12.25;;;;;16.16;38.80;101983.41;5036506;28;45901;-49
2022/04/30 11:03:09;;;;;;;;;11.75;11.75;;;;;16.20;38.85;101976.34;5037153;28;45450;-52
2022/04/30 11:05:35;;;;;;;;;14.60;11.00;;;;;16.37;38.70;101994.19;5056992;28;45715;-49
2022/04/30 11:08:01;;;;;;;;;16.75;13.25;;;;;16.40;38.26;101982.63;5055824;28;45319;-50
2022/04/30 11:10:27;;;;;;;;;17.00;11.20;;;;;16.37;38.09;101977.56;5052992;27;45568;-49
2022/04/30 11:13:05;;;;;;;;;9.00;9.00;;;;;16.46;37.36;101977.28;5057597;28;45302;-51
2022/04/30 11:15:31;;;;;;;;;11.20;10.00;;;;;16.39;37.83;101949.63;5039783;28;46298;-50
2022/04/30 11:17:57;;;;;;;;;9.00;9.00;;;;;16.44;37.38;101960.03;5014510;28;45340;-53
2022/04/30 11:20:24;;;;;;;;;12.00;10.60;;;;;16.57;36.36;101971.06;5035430;28;45514;-54
2022/04/30 11:22:56;;;;;;;;;11.40;9.40;;;;;16.65;37.10;101962.47;5035912;28;45465;-52
2022/04/30 11:25:22;;;;;;;;;11.00;11.00;;;;;16.77;36.62;101953.44;5033782;28;46461;-50
2022/04/30 11:27:48;;;;;;;;;11.20;11.20;;;;;16.88;36.61;101952.72;5035959;28;45444;-50
2022/04/30 11:30:13;;;;;;;;;14.00;11.75;;;;;16.89;36.78;101936.94;5036724;28;45350;-49
2022/04/30 11:32:39;;;;;;;;;15.00;12.25;;;;;17.07;36.31;101950.03;5069190;28;45456;-53
2022/04/30 11:35:05;;;;;;;;;12.25;12.25;;;;;17.15;36.58;101949.75;5035685;28;45442;-55
2022/04/30 11:37:38;;;;;;;;;15.50;12.00;;;;;17.15;36.62;101940.59;5036199;28;45336;-54
2022/04/30 11:40:04;;;;;;;;;9.60;8.60;;;;;17.30;36.89;101943.84;5036581;28;45488;-51
2022/04/30 11:42:30;;;;;;;;;11.20;8.60;;;;;17.44;35.98;101943.72;5036401;28;45396;-51
2022/04/30 11:44:55;;;;;;;;;8.00;8.00;;;;;17.51;35.76;101951.97;5034977;28;46512;-50
2022/04/30 11:47:21;;;;;;;;;9.50;9.50;;;;;17.47;35.26;101932.16;5035489;28;45351;-53